Tiempo atmosférico en la estación meteorológica de Salobreña, Granada (20 m.)



Fecha
DESCASC
Temp. máxima en grados centígrados (hora)
DESCASC
Temp. mínima en grados centígrados (hora)
DESCASC
Temp. media en grados centígrados
DESCASC
Racha de viento máxima en m/sg (hora)
DESCASC
Velocidad máxima media en intervalos de 10 minutos(hora)
DESCASC
Precipitaciones diarias en mm
DESCASC
Precipitaciones de 00:00 a 06:00 en mm
DESCASC
Precipitaciones de 06:00 a 12:00 en mm
DESCASC
Precipitaciones de 12:00 a 18:00 en mm
DESCASC
Precipitaciones de 18:00 a 24:00 en mm
DESCASC
05-04-2020 19 (11:40) 10.5 (07:50) 14.8 6.11 (13:00) 3.89 (14:10) 0 0 0 0 0
04-04-2020 20.4 (13:40) 8 (07:40) 14.2 11.39 (14:40) 6.67 (14:50) 0.4 0 0 0.4 0
03-04-2020 18.8 (16:10) 8.9 (05:30) 13.8 8.89 (01:00) 4.72 (02:30) 0 0 0 0 0
02-04-2020 15.6 (12:20) 9.3 (00:00) 12.5 11.11 (21:40) 5 (12:40) 6.8 0 6.6 0.2 0
01-04-2020 18.1 (14:40) 11.2 (00:00) 14.7 11.39 (16:20) 5.28 (16:10) 10.8 9.6 1 0.2 0
31-03-2020 16.9 (16:40) 12.1 (00:00) 14.5 8.06 (12:50) 4.17 (12:50) 32.8 20.8 2.2 8.6 1.2
30-03-2020 17.3 (12:40) 9.9 (00:00) 13.6 7.78 (15:00) 4.17 (15:00) 0 0 0 0 0
29-03-2020 17.8 (17:40) 8.8 (00:00) 13.3 7.22 (16:50) 4.17 (16:30) 0 0 0 0 0
28-03-2020 17.5 (14:30) 9.2 (00:00) 13.3 8.89 (14:50) 5.28 (13:00) 1 0.8 0.2 0 0
27-03-2020 17 (13:10) 11.3 (00:00) 14.2 8.61 (12:50) 5.28 (12:50) 0 0 0 0 0
26-03-2020 20.8 (12:50) 8.4 (00:00) 14.6 14.17 (12:00) 7.22 (14:40) 0 0 0 0 0
25-03-2020 15 (02:40) 9.6 (00:00) 12.3 5.83 (09:00) 3.33 (09:00) 10.2 4.2 5.2 0.8 0
24-03-2020 21.2 (16:10) 14 (00:00) 17.6 11.11 (04:30) 5.28 (04:30) 0 0 0 0 0
23-03-2020 18.1 (14:10) 8.4 (00:00) 13.3 10.28 (20:00) 6.39 (19:50) 4.2 0 0 3.8 0.4
22-03-2020 15.7 (14:20) 9.4 (23:20) 12.5 6.39 (08:00) 3.89 (08:00) 11.6 10.8 0.8 0 0
21-03-2020 17.7 (15:50) 11.3 (00:00) 14.5 15 (18:10) 6.94 (14:20) 27.2 15.8 4 0 7.4
20-03-2020 19.5 (13:10) 11.6 (00:00) 15.6 9.17 (21:30) 4.44 (17:30) 0 0 0 0 0
19-03-2020 19.7 (13:00) 10.9 (00:00) 15.3 6.67 (13:30) 4.17 (13:30) 0 0 0 0 0
18-03-2020 22 (14:30) 12.3 (00:00) 17.2 13.33 (12:30) 8.06 (11:30) 0 0 0 0 0
17-03-2020 18.8 (15:00) 8.4 (00:00) 13.6 11.67 (10:20) 6.39 (15:20) 0 0 0 0 0
16-03-2020 20 (15:10) 9.7 (00:00) 14.8 12.5 (14:00) 6.94 (14:10) 0.4 0 0.4 0 0
15-03-2020 17.2 (11:50) 12.1 (00:00) 14.7 6.94 (18:30) 3.89 (18:30) 1.2 0 0 1.2 0
14-03-2020 19.8 (14:40) 12.1 (00:00) 15.9 6.11 (13:00) 3.61 (13:00) 0 0 0 0 0
13-03-2020 21.6 (16:30) 9.6 (07:30) 15.6 7.22 (14:20) 4.72 (14:40) 0 0 0 0 0
12-03-2020 25.1 (13:00) 11.9 (00:00) 18.5 6.67 (08:50) 4.17 (08:30) 0 0 0 0 0
11-03-2020 24.8 (17:20) 10.3 (00:00) 17.5 6.39 (06:30) 3.61 (06:40) 0 0 0 0 0

Gráficas

Temp. máximas Temp. mínimas Temp. medias Precipitaciones Rachas de viento máximas Velocidades máximas media en intervalos de 10 minutos

Datos horarios

Fecha y hora oficial Temperatura (ºC) Velocidad del viento (km/h) Dirección del viento Racha (km/h) Dirección de racha Precipitación (mm) Presión (hPa) Tendencia (hPa) Humedad (%)
2020-04-09 23:00:00 -- -- -- -- -- -- -- -- --
2020-04-09 22:00:00 -- -- -- -- -- -- -- -- --
2020-04-09 21:00:00 -- -- -- -- -- -- -- -- --
2020-04-09 20:00:00 -- -- -- -- -- -- -- -- --
2020-04-09 19:00:00 16.3 5 Oeste 8 Oeste 0.4 -- -- 88
2020-04-09 18:00:00 16.6 3 Sur 11 Sur 0 -- -- 85
2020-04-09 17:00:00 16.7 7 Sur 13 Sur 0 -- -- 82
2020-04-09 16:00:00 17.1 8 Sur 14 Sudoeste 0 -- -- 81
2020-04-09 15:00:00 17.4 8 Sudoeste 21 Sudoeste 0 -- -- 81
2020-04-09 14:00:00 18.4 11 Sudoeste 20 Sudoeste 0 -- -- 75
2020-04-09 13:00:00 18.2 10 Sudoeste 19 Oeste 0 -- -- 73
2020-04-09 12:00:00 18.7 9 Sudoeste 14 Sudoeste 0 -- -- 74
2020-04-09 11:00:00 17.3 3 Sudoeste 6 Sudoeste 0 -- -- 80
2020-04-09 10:00:00 15.9 2 Noroeste 6 Sudoeste 0 -- -- 92
2020-04-09 09:00:00 14.7 4 Oeste 12 Oeste 0 -- -- 97
2020-04-09 08:00:00 13.7 2 Norte 6 Nordeste 0 -- -- 97
2020-04-09 07:00:00 13.8 3 Nordeste 6 Norte 0 -- -- 97
2020-04-09 06:00:00 13.8 5 Norte 7 Nordeste 0 -- -- 96
2020-04-09 05:00:00 13.9 3 Norte 7 Norte 0 -- -- 95
2020-04-09 04:00:00 14.9 0 Calma 9 Oeste 0 -- -- 93
2020-04-09 03:00:00 14.8 5 Oeste 10 Oeste 0 -- -- 93
2020-04-09 02:00:00 14.9 3 Este 5 Este 0 -- -- 91
2020-04-09 01:00:00 15.9 0 Calma 5 Sur 0 -- -- 88
2020-04-09 00:00:00 16.1 0 Calma 5 Sur 0 -- -- 89
2020-04-08 23:00:00 16.1 3 Sudoeste 6 Sudoeste 0 -- -- 84
2020-04-08 22:00:00 16.2 0 Calma 6 Sudoeste 0 -- -- 88
2020-04-08 21:00:00 16.3 3 Sur 12 Sudoeste 0 -- -- 86
2020-04-08 20:00:00 16.7 7 Sudoeste 13 Sur 0 -- -- 83
2020-04-08 19:00:00 17.3 9 Sur 18 Sur 0 -- -- 81
2020-04-08 18:00:00 17.5 10 Sur 18 Sudeste 0 -- -- 81
2020-04-08 17:00:00 17.8 12 Sur 22 Sur 0 -- -- 79
2020-04-08 16:00:00 18.1 12 Sur 19 Sur 0 -- -- 75
2020-04-08 15:00:00 18.9 13 Sur 24 Sur 0 -- -- 69
2020-04-08 14:00:00 18.3 11 Sur 18 Sudeste 0 -- -- 73
2020-04-08 13:00:00 16.7 8 Sudoeste 13 Sudoeste 0 -- -- 82
2020-04-08 12:00:00 16.4 5 Sudoeste 11 Oeste 0 -- -- 83
2020-04-08 11:00:00 16.2 5 Sudoeste 11 Sudoeste 0 -- -- 83
2020-04-08 10:00:00 15.7 4 Oeste 10 Noroeste 0 -- -- 87
2020-04-08 09:00:00 14.8 6 Noroeste 12 Norte 0 -- -- 91
2020-04-08 08:00:00 14.1 5 Nordeste 9 Norte 0 -- -- 93
2020-04-08 07:00:00 14.2 4 Nordeste 6 Nordeste 0 -- -- 94
2020-04-08 06:00:00 14.4 3 Nordeste 6 Nordeste 0 -- -- 94
2020-04-08 05:00:00 14.3 3 Norte 10 Norte 0 -- -- 94
2020-04-08 04:00:00 14.2 5 Norte 7 Norte 0 -- -- 97
2020-04-08 03:00:00 13.7 6 Norte 7 Norte 0 -- -- 97
2020-04-08 02:00:00 14.5 3 Nordeste 4 Nordeste 0 -- -- 97
2020-04-08 01:00:00 13.7 3 Noroeste 4 Norte 0 -- -- 96
2020-04-08 00:00:00 14.1 2 Nordeste 3 Nordeste 0 -- -- 92
2020-04-07 23:00:00 15.9 0 Calma 5 Sur 0 -- -- 91
2020-04-07 22:00:00 16.2 4 Sur 10 Sur 0 -- -- 90
2020-04-07 21:00:00 16.2 2 Nordeste 4 Nordeste 0 -- -- 88
2020-04-07 20:00:00 16.4 0 Calma 8 Sudoeste 0 -- -- 85
2020-04-07 19:00:00 16.6 6 Sudoeste 11 Sur 0 -- -- 85
2020-04-07 18:00:00 17 9 Sur 17 Sur 0 -- -- 83
2020-04-07 17:00:00 17.4 9 Sur 17 Sudeste 0 -- -- 80
2020-04-07 16:00:00 17.7 7 Sudoeste 17 Sudoeste 0 -- -- 79
2020-04-07 15:00:00 17.3 11 Sudoeste 14 Sudoeste 0 -- -- 82
2020-04-07 14:00:00 17.1 7 Sudoeste 12 Sur 0 -- -- 82
2020-04-07 13:00:00 16.8 10 Sur 14 Sur 0 -- -- 84
2020-04-07 12:00:00 16.3 8 Sur 15 Sur 0 -- -- 86
2020-04-07 11:00:00 16 3 Sudoeste 6 Sudoeste 0 -- -- 90
2020-04-07 10:00:00 14.9 3 Norte 6 Nordeste 0 -- -- 96
2020-04-07 09:00:00 13.5 5 Nordeste 9 Norte 0 -- -- 98
2020-04-07 08:00:00 11.9 2 Nordeste 10 Nordeste 0 -- -- 97
2020-04-07 07:00:00 11.4 5 Norte 8 Norte 0 -- -- 97
2020-04-07 06:00:00 11.7 5 Norte 9 Norte 0 -- -- 96
2020-04-07 05:00:00 12.7 7 Norte 9 Norte 0 -- -- 97
2020-04-07 04:00:00 13.3 4 Noroeste 5 Noroeste 0 -- -- 96
2020-04-07 03:00:00 13.9 0 Calma 2 Este 0 -- -- 95
2020-04-07 02:00:00 14 2 Este 4 Este 0 -- -- 93
2020-04-07 01:00:00 15.5 3 Norte 5 Norte 0 -- -- 91
2020-04-07 00:00:00 15.9 0 Calma 5 Sur 0 -- -- 85
2020-04-06 23:00:00 15.9 2 Sur 5 Sudoeste 0 -- -- 85
2020-04-06 22:00:00 16 3 Sur 6 Sur 0 -- -- 85
2020-04-06 21:00:00 16.1 3 Sur 9 Sudoeste 0 -- -- 84
2020-04-06 20:00:00 16.3 7 Sudoeste 13 Sudoeste 0 -- -- 82
2020-04-06 19:00:00 16.9 5 Sur 13 Sudoeste 0 -- -- 81
2020-04-06 18:00:00 16.9 8 Sudoeste 17 Sudoeste 0 -- -- 80
2020-04-06 17:00:00 18.1 7 Sudoeste 16 Sudoeste 0 -- -- 76
2020-04-06 16:00:00 17.5 9 Sudoeste 19 Sur 0 -- -- 79
2020-04-06 15:00:00 18.1 8 Sudoeste 17 Sur 0 -- -- 76
2020-04-06 14:00:00 17.3 10 Sudoeste 17 Sudoeste 0 -- -- 79
2020-04-06 13:00:00 17.6 10 Sur 17 Sudoeste 0 -- -- 78
2020-04-06 12:00:00 17 10 Sur 16 Sur 0 -- -- 80
2020-04-06 11:00:00 16.7 3 Sur 10 Este 0 -- -- 79
2020-04-06 10:00:00 16 6 Nordeste 10 Nordeste 0 -- -- 85
2020-04-06 09:00:00 13.6 5 Nordeste 9 Nordeste 0 -- -- 95
2020-04-06 08:00:00 13 5 Norte 8 Nordeste 0 -- -- 97
2020-04-06 07:00:00 12.6 6 Nordeste 9 Nordeste 0 -- -- 97
2020-04-06 06:00:00 12.1 5 Norte 9 Norte 0 -- -- 97
2020-04-06 05:00:00 12.3 5 Norte 8 Norte 0 -- -- 95
2020-04-06 04:00:00 13.9 3 Norte 4 Norte 0 -- -- 94
2020-04-06 03:00:00 14.8 0 Calma 4 Sur 0 -- -- 92
2020-04-06 02:00:00 15.5 0 Calma 4 Sur 0 -- -- 89
2020-04-06 01:00:00 15.7 3 Sur 7 Sudoeste 0 -- -- 87
2020-04-06 00:00:00 15.9 4 Sur 5 Sudoeste 0 -- -- 87
2020-04-05 23:00:00 15.9 3 Sur 4 Sudoeste 0 -- -- 86
2020-04-05 22:00:00 15.9 3 Sur 6 Sur 0 -- -- 86
2020-04-05 21:00:00 16 4 Sur 10 Sudoeste 0 -- -- 85
2020-04-05 20:00:00 16.2 8 Sudoeste 14 Sudoeste 0 -- -- 82
2020-04-05 19:00:00 17 9 Sur 19 Sur 0 -- -- 79
2020-04-05 18:00:00 17.9 12 Sudoeste 21 Sudoeste 0 -- -- 74
2020-04-05 17:00:00 17.9 11 Sudoeste 21 Sudoeste 0 -- -- 74
2020-04-05 16:00:00 18.6 11 Sudoeste 22 Sudoeste 0 -- -- 69
2020-04-05 15:00:00 18.7 12 Sudoeste 20 Sudoeste 0 -- -- 66
2020-04-05 14:00:00 18.4 13 Sudoeste 22 Sudoeste 0 -- -- 67
2020-04-05 13:00:00 18.4 13 Sudoeste 22 Sudoeste 0 -- -- 62
2020-04-05 12:00:00 18.2 13 Sudoeste 19 Oeste 0 -- -- 64
2020-04-05 11:00:00 17.9 3 Sudoeste 10 Nordeste 0 -- -- 67
2020-04-05 10:00:00 15.1 7 Nordeste 14 Nordeste 0 -- -- 82
2020-04-05 09:00:00 11.3 6 Nordeste 13 Nordeste 0 -- -- 94
2020-04-05 08:00:00 10.6 8 Nordeste 12 Nordeste 0 -- -- 94
2020-04-05 07:00:00 10.9 6 Nordeste 14 Nordeste 0 -- -- 93
2020-04-05 06:00:00 11 5 Norte 11 Nordeste 0 -- -- 93
2020-04-05 05:00:00 11.3 8 Nordeste 13 Nordeste 0 -- -- 95
2020-04-05 04:00:00 11.4 8 Nordeste 14 Nordeste 0 -- -- 95
2020-04-05 03:00:00 11.4 6 Norte 10 Norte 0 -- -- 95
2020-04-05 02:00:00 11.7 5 Norte 8 Nordeste 0 -- -- 93
2020-04-05 01:00:00 13.1 3 Este 5 Norte 0 -- -- 93
2020-04-05 00:00:00 13.8 4 Noroeste 8 Sur 0 -- -- 90
2020-04-04 23:00:00 14.3 2 Sur 9 Norte 0 -- -- 87
2020-04-04 22:00:00 14.6 6 Norte 9 Norte 0 -- -- 86
2020-04-04 21:00:00 15.8 5 Noroeste 9 Oeste 0 -- -- 77
2020-04-04 20:00:00 17.2 5 Sudoeste 20 Nordeste 0 -- -- 69
2020-04-04 19:00:00 16.6 15 Este 26 Este 0 -- -- 70
2020-04-04 18:00:00 16.4 11 Nordeste 22 Nordeste 0.4 -- -- 83
2020-04-04 17:00:00 17.8 3 Sudoeste 31 Sudeste 0 -- -- 66
2020-04-04 16:00:00 18.8 16 Sur 37 Sudeste 0 -- -- 63
2020-04-04 15:00:00 19.4 21 Sudeste 41 Sudeste 0 -- -- 59
2020-04-04 14:00:00 19.7 19 Sudeste 36 Sudeste 0 -- -- 58
2020-04-04 13:00:00 19.7 18 Sudeste 36 Sudeste 0 -- -- 53
2020-04-04 12:00:00 19.8 17 Sudeste 37 Sudeste 0 -- -- 46
2020-04-04 11:00:00 18.6 15 Sur 27 Sudeste 0 -- -- 52
2020-04-04 10:00:00 17.1 10 Sudeste 19 Sudeste 0 -- -- 57
2020-04-04 09:00:00 10.9 4 Norte 13 Nordeste 0 -- -- 86
2020-04-04 08:00:00 8.1 8 Nordeste 13 Nordeste 0 -- -- 91
2020-04-04 07:00:00 9 7 Nordeste 15 Norte 0 -- -- 88
2020-04-04 06:00:00 8.7 7 Norte 11 Norte 0 -- -- 91
2020-04-04 05:00:00 9.3 8 Nordeste 13 Norte 0 -- -- 90
2020-04-04 04:00:00 10.2 11 Nordeste 17 Nordeste 0 -- -- 92
2020-04-04 03:00:00 10.5 10 Nordeste 14 Nordeste 0 -- -- 94
2020-04-04 02:00:00 10.6 8 Nordeste 12 Nordeste 0 -- -- 94
2020-04-04 01:00:00 10.9 7 Norte 11 Norte 0 -- -- 94
2020-04-04 00:00:00 11.4 6 Norte 9 Norte 0 -- -- 92
2020-04-03 23:00:00 12.1 7 Norte 10 Norte 0 -- -- 91
2020-04-03 22:00:00 13.1 3 Norte 8 Sudeste 0 -- -- 88
2020-04-03 21:00:00 15.5 4 Sur 18 Sur 0 -- -- 78
2020-04-03 20:00:00 16.4 12 Sur 22 Sur 0 -- -- 73
2020-04-03 19:00:00 17.1 15 Sur 25 Sudeste 0 -- -- 71
2020-04-03 18:00:00 17.7 15 Sur 27 Sudeste 0 -- -- 68
2020-04-03 17:00:00 18 17 Sur 26 Sur 0 -- -- 69
2020-04-03 16:00:00 18.7 16 Sur 26 Sur 0 -- -- 61
2020-04-03 15:00:00 18.4 13 Sur 24 Sur 0 -- -- 68
2020-04-03 14:00:00 18.3 13 Sur 24 Sudeste 0 -- -- 70
2020-04-03 13:00:00 17.8 15 Sudeste 26 Sudeste 0 -- -- 70
2020-04-03 12:00:00 17.6 14 Sudeste 24 Sudeste 0 -- -- 67
2020-04-03 11:00:00 17.4 12 Sudeste 20 Sudeste 0 -- -- 66
2020-04-03 10:00:00 15.5 12 Nordeste 25 Nordeste 0 -- -- 65
2020-04-03 09:00:00 12.3 13 Nordeste 24 Nordeste 0 -- -- 74
2020-04-03 08:00:00 11.4 16 Nordeste 26 Nordeste 0 -- -- 75
2020-04-03 07:00:00 11.1 10 Nordeste 19 Este 0 -- -- 77
2020-04-03 06:00:00 9.8 3 Nordeste 20 Este 0 -- -- 83
2020-04-03 05:00:00 10.1 5 Nordeste 19 Nordeste 0 -- -- 81
2020-04-03 04:00:00 9.7 8 Nordeste 13 Nordeste 0 -- -- 83
2020-04-03 03:00:00 11 6 Nordeste 27 Nordeste 0 -- -- 76
2020-04-03 02:00:00 11.4 10 Nordeste 27 Norte 0 -- -- 74
2020-04-03 01:00:00 12.2 14 Nordeste 32 Nordeste 0 -- -- 69
2020-04-03 00:00:00 12.3 14 Nordeste 27 Nordeste 0 -- -- 70
2020-04-02 23:00:00 12.9 9 Nordeste 26 Norte 0 -- -- 70
2020-04-02 22:00:00 13.4 13 Noroeste 40 Sur 0 -- -- 65
2020-04-02 21:00:00 13 9 Nordeste 28 Norte 0 -- -- 69
2020-04-02 20:00:00 13.1 3 Nordeste 11 Oeste 0 -- -- 78
2020-04-02 19:00:00 13.6 0 Calma 22 Oeste 0 -- -- 69
2020-04-02 18:00:00 13.6 6 Sudoeste 17 Noroeste 0 -- -- 69
2020-04-02 17:00:00 13.2 12 Oeste 27 Noroeste 0 -- -- 67
2020-04-02 16:00:00 14.6 13 Sudoeste 26 Sudoeste 0 -- -- 65
2020-04-02 15:00:00 13.8 10 Sudoeste 23 Sur 0 -- -- 76
2020-04-02 14:00:00 13.8 14 Sur 28 Sur 0 -- -- 80
2020-04-02 13:00:00 14.8 16 Sudeste 27 Sur 0.2 -- -- 80
2020-04-02 12:00:00 15.3 10 Este 21 Nordeste 0 -- -- 75
2020-04-02 11:00:00 11.3 11 Nordeste 21 Nordeste 1 -- -- 96
2020-04-02 10:00:00 10.6 3 Este 18 Este 2.2 -- -- 95
2020-04-02 09:00:00 10.8 6 Norte 14 Nordeste 2.6 -- -- 93
2020-04-02 08:00:00 11.3 5 Sudeste 15 Nordeste 0.8 -- -- 84
2020-04-02 07:00:00 11 5 Nordeste 11 Nordeste 0 -- -- 85
2020-04-02 06:00:00 11.1 4 Nordeste 21 Nordeste 0 -- -- 85
2020-04-02 05:00:00 10.6 12 Nordeste 19 Nordeste 0 -- -- 85
2020-04-02 04:00:00 9.4 8 Norte 10 Noroeste 0 -- -- 89
2020-04-02 03:00:00 9.6 8 Norte 10 Norte 0 -- -- 90
2020-04-02 02:00:00 9.8 5 Norte 10 Nordeste 0 -- -- 90
2020-04-02 01:00:00 11 5 Nordeste 9 Nordeste 0 -- -- 88
2020-04-02 00:00:00 11.3 6 Norte 12 Norte 0 -- -- 88
2020-04-01 23:00:00 13.1 8 Nordeste 15 Oeste 0 -- -- 85
2020-04-01 22:00:00 14.4 8 Noroeste 22 Oeste 0 -- -- 78
2020-04-01 21:00:00 14.4 3 Norte 16 Noroeste 0 -- -- 84
2020-04-01 20:00:00 16.1 14 Oeste 35 Oeste 0 -- -- 79
2020-04-01 19:00:00 17.4 14 Oeste 35 Oeste 0 -- -- 69
2020-04-01 18:00:00 17.8 14 Sudoeste 29 Sudoeste 0 -- -- 70
2020-04-01 17:00:00 17.8 10 Oeste 41 Oeste 0 -- -- 74
2020-04-01 16:00:00 17.8 18 Oeste 36 Sudoeste 0 -- -- 77
2020-04-01 15:00:00 17.6 16 Oeste 33 Sudoeste 0 -- -- 80
2020-04-01 14:00:00 18 12 Sudoeste 23 Oeste 0 -- -- 78
2020-04-01 13:00:00 17.5 10 Oeste 22 Oeste 0.2 -- -- 79
2020-04-01 12:00:00 17.1 9 Sudoeste 14 Sudoeste 0 -- -- 81
2020-04-01 11:00:00 15.7 0 Calma 6 Nordeste 0 -- -- 85
2020-04-01 10:00:00 13.9 4 Nordeste 11 Nordeste 0 -- -- 99
2020-04-01 09:00:00 11.9 7 Nordeste 10 Nordeste 0 -- -- 99
2020-04-01 08:00:00 12 6 Nordeste 11 Nordeste 1 -- -- 98
2020-04-01 07:00:00 11.8 8 Nordeste 12 Nordeste 0 -- -- 99
2020-04-01 06:00:00 11.3 7 Nordeste 10 Nordeste 0 -- -- 99
2020-04-01 05:00:00 11.2 6 Norte 9 Norte 0 -- -- 99
2020-04-01 04:00:00 12.2 4 Norte 9 Nordeste 0 -- -- 98
2020-04-01 03:00:00 12.5 5 Nordeste 8 Nordeste 0 -- -- 98
2020-04-01 02:00:00 13.3 5 Norte 9 Nordeste 0.4 -- -- 98
2020-04-01 01:00:00 13.7 0 Calma 13 Noroeste 9.2 -- -- 97
2020-04-01 00:00:00 14.2 2 Sur 9 Noroeste 0.2 -- -- 97
2020-03-31 23:00:00 14.1 5 Norte 10 Nordeste 0 -- -- 97
2020-03-31 22:00:00 14.2 3 Norte 6 Norte 0 -- -- 96
2020-03-31 21:00:00 14.7 4 Norte 6 Norte 0 -- -- 95
2020-03-31 20:00:00 15.3 4 Nordeste 9 Norte 0.2 -- -- 92
2020-03-31 19:00:00 15.6 3 Noroeste 9 Norte 0.8 -- -- 87
2020-03-31 18:00:00 16.2 3 Sudoeste 21 Sudeste 0.6 -- -- 82
2020-03-31 17:00:00 16.2 14 Sur 23 Sudeste 0 -- -- 81
2020-03-31 16:00:00 16.6 3 Este 13 Sur 0 -- -- 82
2020-03-31 15:00:00 16 8 Sudeste 23 Sudoeste 0.2 -- -- 82
2020-03-31 14:00:00 13.7 8 Noroeste 16 Noroeste 1.8 -- -- 96
2020-03-31 13:00:00 13.1 7 Nordeste 29 Noroeste 6 -- -- 95
2020-03-31 12:00:00 13.9 7 Norte 17 Norte 0.6 -- -- 93
2020-03-31 11:00:00 14.1 4 Nordeste 10 Norte 0.2 -- -- 95
2020-03-31 10:00:00 13.3 3 Este 11 Nordeste 0.4 -- -- 95
2020-03-31 09:00:00 12.2 4 Oeste 10 Este 1 -- -- 96
2020-03-31 08:00:00 12.2 5 Nordeste 10 Nordeste 0 -- -- 97
2020-03-31 07:00:00 12.2 2 Norte 12 Nordeste 0 -- -- 97
2020-03-31 06:00:00 12.6 9 Nordeste 17 Nordeste 9 -- -- 96
2020-03-31 05:00:00 13.6 3 Norte 12 Noroeste 10.8 -- -- 95
2020-03-31 04:00:00 14.2 3 Nordeste 26 Sur 1 -- -- 86
2020-03-31 03:00:00 14.2 3 Sudeste 17 Oeste 0 -- -- 86
2020-03-31 02:00:00 13.4 3 Norte 10 Noroeste 0 -- -- 95
2020-03-31 01:00:00 12.7 3 Norte 8 Nordeste 0 -- -- 94
2020-03-31 00:00:00 13.3 6 Nordeste 9 Nordeste 0 -- -- 93
2020-03-30 23:00:00 13.6 3 Norte 5 Norte 0 -- -- 92
2020-03-30 22:00:00 14.2 3 Norte 9 Oeste 0 -- -- 90
2020-03-30 21:00:00 15.5 6 Oeste 12 Oeste 0 -- -- 83
2020-03-30 20:00:00 16.4 0 Calma 6 Sur 0 -- -- 81
2020-03-30 19:00:00 16.9 4 Sudeste 11 Oeste 0 -- -- 76
2020-03-30 18:00:00 16.9 5 Oeste 21 Oeste 0 -- -- 73
2020-03-30 17:00:00 16.7 10 Sudoeste 20 Sudoeste 0 -- -- 77
2020-03-30 16:00:00 17 12 Sudoeste 25 Sudoeste 0 -- -- 79
2020-03-30 15:00:00 16.8 15 Sudoeste 28 Sudoeste 0 -- -- 79
2020-03-30 14:00:00 17.1 12 Sudoeste 22 Sudoeste 0 -- -- 77
2020-03-30 13:00:00 17.2 10 Sudoeste 18 Sudoeste 0 -- -- 73
2020-03-30 12:00:00 16.9 9 Oeste 18 Oeste 0 -- -- 77
2020-03-30 11:00:00 17 5 Sudoeste 10 Oeste 0 -- -- 74
2020-03-30 10:00:00 13.6 0 Calma 6 Norte 0 -- -- 91
2020-03-30 09:00:00 10.8 7 Norte 9 Norte 0 -- -- 97
2020-03-30 08:00:00 10.3 5 Noroeste 8 Norte 0 -- -- 96
2020-03-30 07:00:00 11.2 4 Nordeste 6 Norte 0 -- -- 96
2020-03-30 06:00:00 11.4 4 Norte 8 Nordeste 0 -- -- 96
2020-03-30 05:00:00 11 4 Norte 7 Nordeste 0 -- -- 96
2020-03-30 04:00:00 11.3 6 Nordeste 10 Nordeste 0 -- -- 95
2020-03-30 03:00:00 11 7 Nordeste 9 Norte 0 -- -- 96
2020-03-30 02:00:00 10.7 6 Norte 8 Norte 0 -- -- 95
2020-03-30 01:00:00 11.4 4 Norte 8 Norte 0 -- -- 94
2020-03-30 00:00:00 12.1 4 Norte 8 Nordeste 0 -- -- 93
2020-03-29 23:00:00 12.7 4 Norte 6 Norte 0 -- -- 92
2020-03-29 22:00:00 13.3 3 Norte 6 Noroeste 0 -- -- 90
2020-03-29 21:00:00 14.6 3 Noroeste 8 Sudoeste 0 -- -- 80
2020-03-29 20:00:00 15.7 5 Sudoeste 13 Sudoeste 0 -- -- 71
2020-03-29 19:00:00 16.5 6 Sudoeste 17 Sudoeste 0 -- -- 68
2020-03-29 18:00:00 17.2 13 Sudoeste 20 Oeste 0 -- -- 66
2020-03-29 17:00:00 17.6 11 Oeste 26 Sudoeste 0 -- -- 69
2020-03-29 16:00:00 17.5 13 Sudoeste 23 Sudoeste 0 -- -- 70
2020-03-29 15:00:00 17.6 12 Sudoeste 21 Sudoeste 0 -- -- 71
2020-03-29 14:00:00 17.5 12 Oeste 21 Oeste 0 -- -- 67
2020-03-29 13:00:00 17.2 10 Sudoeste 19 Oeste 0 -- -- 71
2020-03-29 12:00:00 17 8 Sudoeste 18 Sudoeste 0 -- -- 73
2020-03-29 11:00:00 16.3 9 Sudoeste 15 Sudoeste 0 -- -- 66
2020-03-29 10:00:00 15.1 0 Calma 7 Nordeste 0 -- -- 69
2020-03-29 09:00:00 10.5 5 Norte 11 Nordeste 0 -- -- 89
2020-03-29 08:00:00 9.1 7 Nordeste 13 Nordeste 0 -- -- 87
2020-03-29 07:00:00 9.4 8 Nordeste 11 Nordeste 0 -- -- 88
2020-03-29 06:00:00 8.9 9 Norte 12 Norte 0 -- -- 89
2020-03-29 05:00:00 9.4 8 Nordeste 12 Norte 0 -- -- 89
2020-03-29 03:00:00 11.3 4 Nordeste 6 Norte 0 -- -- 93
2020-03-29 01:00:00 12 4 Nordeste 6 Nordeste 0 -- -- 93
2020-03-29 00:00:00 12.9 4 Norte 5 Noroeste 0 -- -- 91
2020-03-28 23:00:00 13 3 Norte 5 Norte 0 -- -- 89
2020-03-28 22:00:00 13.3 0 Calma 4 Noroeste 0 -- -- 88
2020-03-28 21:00:00 13.7 0 Calma 13 Sudeste 0 -- -- 84
2020-03-28 20:00:00 14.2 6 Sur 16 Sur 0 -- -- 77
2020-03-28 19:00:00 14.5 10 Sur 22 Sur 0 -- -- 76
2020-03-28 18:00:00 15 12 Sur 25 Sur 0 -- -- 75
2020-03-28 17:00:00 15.5 15 Sur 26 Sudeste 0 -- -- 70
2020-03-28 16:00:00 16.2 14 Sur 30 Sur 0 -- -- 65
2020-03-28 15:00:00 17.1 17 Sur 32 Sur 0 -- -- 63
2020-03-28 14:00:00 16.3 17 Sur 28 Sudeste 0 -- -- 64
2020-03-28 13:00:00 16.2 19 Sur 30 Sur 0 -- -- 65
2020-03-28 12:00:00 16 15 Sur 29 Sur 0 -- -- 68
2020-03-28 11:00:00 15.9 14 Sur 21 Sur 0.2 -- -- 73
2020-03-28 10:00:00 14.7 2 Nordeste 10 Este 0 -- -- 84
2020-03-28 09:00:00 12.2 5 Este 13 Nordeste 0 -- -- 98
2020-03-28 08:00:00 10.6 6 Nordeste 12 Nordeste 0 -- -- 98
2020-03-28 07:00:00 9.2 4 Nordeste 9 Nordeste 0 -- -- 96
2020-03-28 06:00:00 10 5 Nordeste 8 Nordeste 0 -- -- 96
2020-03-28 05:00:00 10.6 4 Norte 9 Nordeste 0 -- -- 94
2020-03-28 04:00:00 12 4 Nordeste 12 Norte 0.8 -- -- 93
2020-03-28 03:00:00 13 4 Norte 14 Este 0 -- -- 87
2020-03-28 02:00:00 12.9 0 Calma 8 Sudeste 0 -- -- 90
2020-03-28 01:00:00 13.1 3 Sudeste 11 Sur 0 -- -- 86
2020-03-28 00:00:00 13.1 0 Calma 7 Este 0 -- -- 88
2020-03-27 23:00:00 13.1 2 Nordeste 4 Norte 0 -- -- 91
2020-03-27 22:00:00 13 0 Calma 3 Norte 0 -- -- 91
2020-03-27 21:00:00 13.1 0 Calma 4 Sudeste 0 -- -- 90
2020-03-27 20:00:00 13.8 3 Sur 12 Sur 0 -- -- 81
2020-03-27 19:00:00 15 7 Sur 16 Sudeste 0 -- -- 75
2020-03-27 18:00:00 15.9 12 Sur 23 Sur 0 -- -- 71
2020-03-27 17:00:00 16 15 Sur 23 Sur 0 -- -- 68
2020-03-27 16:00:00 16.7 14 Sur 26 Sudeste 0 -- -- 66
2020-03-27 15:00:00 16.2 18 Sur 27 Sur 0 -- -- 66
2020-03-27 14:00:00 16.9 17 Sur 27 Sur 0 -- -- 64
2020-03-27 13:00:00 16.9 15 Sudeste 31 Sudeste 0 -- -- 62
2020-03-27 12:00:00 15.6 16 Sudeste 29 Sudeste 0 -- -- 63
2020-03-27 11:00:00 15.5 16 Sudeste 29 Sudeste 0 -- -- 64
2020-03-27 10:00:00 14.6 10 Sudeste 20 Sudeste 0 -- -- 68
2020-03-27 09:00:00 14 8 Sudeste 19 Este 0 -- -- 69
2020-03-27 08:00:00 11.9 2 Norte 10 Sudeste 0 -- -- 92
2020-03-27 07:00:00 11.5 0 Calma 14 Este 0 -- -- 91
2020-03-27 06:00:00 11.8 3 Nordeste 16 Sudeste 0 -- -- 88
2020-03-27 05:00:00 11.8 3 Nordeste 10 Sudeste 0 -- -- 90
2020-03-27 04:00:00 11.8 0 Calma 15 Sudeste 0 -- -- 87
2020-03-27 03:00:00 13.3 4 Sur 26 Sudeste 0 -- -- 84
2020-03-27 02:00:00 13.6 7 Sudeste 23 Sudeste 0 -- -- 87
2020-03-27 01:00:00 14.9 8 Sudeste 26 Sudeste 0 -- -- 81
2020-03-27 00:00:00 13.6 4 Sudeste 12 Sur 0 -- -- 84
2020-03-26 23:00:00 14.7 6 Sudeste 14 Noroeste 0 -- -- 80
2020-03-26 22:00:00 15.8 3 Sudoeste 16 Oeste 0 -- -- 78
2020-03-26 21:00:00 16.4 9 Oeste 23 Oeste 0 -- -- 76
2020-03-26 20:00:00 17.2 10 Oeste 19 Oeste 0 -- -- 76
2020-03-26 19:00:00 18.1 8 Oeste 35 Oeste 0 -- -- 76
2020-03-26 18:00:00 18.8 20 Oeste 37 Oeste 0 -- -- 72
2020-03-26 17:00:00 19.6 23 Oeste 43 Oeste 0 -- -- 70
2020-03-26 16:00:00 19.5 25 Oeste 43 Oeste 0 -- -- 68
2020-03-26 15:00:00 19.3 25 Oeste 50 Oeste 0 -- -- 66
2020-03-26 14:00:00 19.5 21 Oeste 42 Oeste 0 -- -- 68
2020-03-26 13:00:00 20.6 17 Oeste 40 Noroeste 0 -- -- 62
2020-03-26 12:00:00 20 22 Noroeste 51 Oeste 0 -- -- 58
2020-03-26 11:00:00 16.7 14 Oeste 29 Sudoeste 0 -- -- 80
2020-03-26 10:00:00 15.1 7 Sudoeste 13 Sudoeste 0 -- -- 81
2020-03-26 09:00:00 11.3 3 Norte 8 Nordeste 0 -- -- 100
2020-03-26 08:00:00 9.2 2 Nordeste 9 Norte 0 -- -- 98
2020-03-26 07:00:00 9 4 Norte 9 Norte 0 -- -- 97
2020-03-26 06:00:00 8.6 4 Norte 9 Norte 0 -- -- 97
2020-03-26 05:00:00 8.7 7 Norte 12 Norte 0 -- -- 97
2020-03-26 04:00:00 8.8 6 Norte 12 Nordeste 0 -- -- 96
2020-03-26 03:00:00 8.9 7 Nordeste 10 Norte 0 -- -- 97
2020-03-26 02:00:00 8.8 6 Nordeste 10 Norte 0 -- -- 97
2020-03-26 01:00:00 9 6 Norte 10 Norte 0 -- -- 96
2020-03-26 00:00:00 9.6 5 Norte 8 Norte 0 -- -- 96
2020-03-25 23:00:00 10.9 4 Norte 6 Norte 0 -- -- 96
2020-03-25 22:00:00 11.5 3 Norte 4 Norte 0 -- -- 96
2020-03-25 21:00:00 11.3 4 Norte 6 Nordeste 0 -- -- 94
2020-03-25 20:00:00 11.9 0 Calma 6 Norte 0 -- -- 90
2020-03-25 19:00:00 12.8 5 Noroeste 8 Noroeste 0 -- -- 85
2020-03-25 18:00:00 13.5 3 Noroeste 9 Sudoeste 0 -- -- 79
2020-03-25 17:00:00 14.2 5 Sudoeste 10 Sur 0 -- -- 72
2020-03-25 16:00:00 14.5 2 Nordeste 9 Nordeste 0.2 -- -- 76
2020-03-25 15:00:00 12.8 5 Norte 15 Nordeste 0.4 -- -- 90
2020-03-25 14:00:00 12.6 9 Nordeste 14 Este 0 -- -- 90
2020-03-25 13:00:00 12.3 3 Norte 11 Norte 0.2 -- -- 93
2020-03-25 12:00:00 11.8 7 Norte 12 Norte 1 -- -- 93
2020-03-25 11:00:00 11.9 7 Norte 15 Norte 1.4 -- -- 94
2020-03-25 10:00:00 11.6 8 Oeste 18 Oeste 2.2 -- -- 91
2020-03-25 09:00:00 12.8 12 Sudoeste 21 Sudoeste 0.6 -- -- 91
2020-03-25 08:00:00 12.9 5 Oeste 15 Oeste 0 -- -- 92
2020-03-25 07:00:00 13.1 6 Oeste 14 Oeste 0 -- -- 90
2020-03-25 06:00:00 13.1 5 Sur 7 Sudeste 0 -- -- 94
2020-03-25 05:00:00 13 4 Norte 15 Nordeste 0.2 -- -- 94
2020-03-25 04:00:00 13.6 7 Norte 15 Norte 3 -- -- 94
2020-03-25 03:00:00 14.6 6 Noroeste 10 Sudoeste 1 -- -- 91
2020-03-25 02:00:00 14.7 5 Sudoeste 9 Sudoeste 0 -- -- 90
2020-03-25 01:00:00 14.3 3 Nordeste 6 Norte 0 -- -- 93
2020-03-25 00:00:00 14.1 4 Norte 6 Norte 0 -- -- 92
2020-03-24 23:00:00 14.7 2 Norte 9 Oeste 0 -- -- 89
2020-03-24 22:00:00 15.8 5 Oeste 14 Sudoeste 0 -- -- 84
2020-03-24 21:00:00 16.4 6 Sudoeste 18 Oeste 0 -- -- 74
2020-03-24 20:00:00 16.5 6 Oeste 23 Oeste 0 -- -- 74
2020-03-24 19:00:00 17.3 12 Oeste 27 Oeste 0 -- -- 74
2020-03-24 18:00:00 18.3 11 Oeste 32 Noroeste 0 -- -- 67
2020-03-24 17:00:00 19.7 13 Oeste 26 Sudoeste 0 -- -- 59
2020-03-24 16:00:00 20.9 13 Oeste 24 Oeste 0 -- -- 55
2020-03-24 15:00:00 20.5 12 Oeste 24 Noroeste 0 -- -- 59
2020-03-24 14:00:00 18.9 13 Oeste 25 Noroeste 0 -- -- 59
2020-03-24 13:00:00 18.2 12 Oeste 24 Oeste 0 -- -- 69
2020-03-24 12:00:00 19.6 5 Sudoeste 13 Este 0 -- -- 63
2020-03-24 11:00:00 19.2 9 Nordeste 18 Nordeste 0 -- -- 58
2020-03-24 10:00:00 18.9 10 Nordeste 27 Nordeste 0 -- -- 58
2020-03-24 09:00:00 16.3 9 Este 26 Nordeste 0 -- -- 65
2020-03-24 08:00:00 15.7 10 Este 30 Nordeste 0 -- -- 65
2020-03-24 07:00:00 15.5 12 Este 30 Nordeste 0 -- -- 64
2020-03-24 06:00:00 14.8 13 Este 32 Nordeste 0 -- -- 68
2020-03-24 05:00:00 15.3 14 Nordeste 40 Norte 0 -- -- 64
2020-03-24 04:00:00 14.9 17 Nordeste 33 Nordeste 0 -- -- 66
2020-03-24 03:00:00 15 12 Nordeste 28 Nordeste 0 -- -- 65
2020-03-24 02:00:00 14.4 12 Nordeste 27 Nordeste 0 -- -- 71
2020-03-24 01:00:00 14.2 11 Este 20 Este 0 -- -- 73
2020-03-24 00:00:00 14.8 6 Sudoeste 21 Oeste 0 -- -- 72
2020-03-23 23:00:00 14.9 5 Este 22 Este 0 -- -- 70
2020-03-23 22:00:00 14.9 13 Este 23 Este 0 -- -- 68
2020-03-23 21:00:00 13.8 9 Este 31 Nordeste 0 -- -- 77
2020-03-23 20:00:00 13.3 20 Nordeste 37 Nordeste 0 -- -- 79
2020-03-23 19:00:00 12.8 10 Este 19 Este 0.4 -- -- 86
2020-03-23 18:00:00 12.8 8 Norte 13 Norte 1.2 -- -- 93
2020-03-23 17:00:00 13.8 7 Sudeste 25 Sudeste 1.6 -- -- 90
2020-03-23 16:00:00 14.5 10 Sudeste 30 Sur 1 -- -- 81
2020-03-23 15:00:00 16.1 18 Sur 36 Sudeste 0 -- -- 73
2020-03-23 14:00:00 17.1 15 Sur 25 Sur 0 -- -- 67
2020-03-23 13:00:00 16.8 16 Sur 24 Sur 0 -- -- 67
2020-03-23 12:00:00 17.1 14 Sur 22 Sur 0 -- -- 68
2020-03-23 11:00:00 16.1 4 Sur 19 Sudeste 0 -- -- 73
2020-03-23 10:00:00 14.7 5 Nordeste 16 Este 0 -- -- 70
2020-03-23 09:00:00 12.4 9 Nordeste 21 Nordeste 0 -- -- 82
2020-03-23 08:00:00 9.3 12 Nordeste 17 Nordeste 0 -- -- 92
2020-03-23 07:00:00 8.6 9 Nordeste 15 Nordeste 0 -- -- 92
2020-03-23 06:00:00 8.8 7 Nordeste 15 Nordeste 0 -- -- 93
2020-03-23 05:00:00 8.8 9 Nordeste 13 Nordeste 0 -- -- 94
2020-03-23 04:00:00 9.3 9 Nordeste 13 Nordeste 0 -- -- 94
2020-03-23 03:00:00 9.7 6 Nordeste 12 Nordeste 0 -- -- 95
2020-03-23 02:00:00 9.3 7 Nordeste 12 Nordeste 0 -- -- 96
2020-03-23 01:00:00 9.4 6 Nordeste 11 Nordeste 0 -- -- 96
2020-03-23 00:00:00 9.5 7 Nordeste 9 Nordeste 0 -- -- 97
2020-03-22 23:00:00 9.6 5 Norte 9 Norte 0 -- -- 96
2020-03-22 22:00:00 10.1 8 Norte 11 Norte 0 -- -- 96
2020-03-22 21:00:00 10.6 7 Norte 9 Norte 0 -- -- 94
2020-03-22 20:00:00 12.1 3 Este 8 Sur 0 -- -- 88
2020-03-22 19:00:00 14.4 5 Sur 12 Sur 0 -- -- 81
2020-03-22 18:00:00 15.4 8 Sudoeste 14 Sur 0 -- -- 75
2020-03-22 17:00:00 15.7 9 Sur 15 Sur 0 -- -- 76
2020-03-22 16:00:00 14.4 7 Sur 18 Sudoeste 0 -- -- 83
2020-03-22 15:00:00 14.5 14 Sur 22 Sur 0 -- -- 82
2020-03-22 14:00:00 15.1 10 Sudoeste 19 Sudoeste 0 -- -- 76
2020-03-22 13:00:00 14.4 10 Sudoeste 15 Sur 0 -- -- 73
2020-03-22 12:00:00 14.5 3 Sudoeste 10 Sur 0 -- -- 74
2020-03-22 11:00:00 12.5 2 Nordeste 9 Noroeste 0 -- -- 84
2020-03-22 10:00:00 11.5 5 Nordeste 11 Este 0 -- -- 87
2020-03-22 09:00:00 10.8 7 Nordeste 22 Nordeste 0 -- -- 86
2020-03-22 08:00:00 9.9 14 Nordeste 23 Nordeste 0 -- -- 90
2020-03-22 07:00:00 9.8 5 Nordeste 13 Nordeste 0.8 -- -- 95
2020-03-22 06:00:00 9.9 5 Nordeste 13 Nordeste 3 -- -- 95
2020-03-22 05:00:00 10.4 3 Este 14 Nordeste 2.8 -- -- 96
2020-03-22 04:00:00 10.7 6 Nordeste 9 Nordeste 3 -- -- 95
2020-03-22 03:00:00 10.8 4 Norte 13 Nordeste 0.2 -- -- 94
2020-03-22 02:00:00 10.9 7 Nordeste 13 Nordeste 0.2 -- -- 94
2020-03-22 01:00:00 11.4 4 Norte 13 Este 1.6 -- -- 96
2020-03-22 00:00:00 11.9 0 Calma 9 Este 0.6 -- -- 96
2020-03-21 23:00:00 12.1 6 Este 9 Este 2 -- -- 94
2020-03-21 22:00:00 12.4 0 Calma 7 Norte 0.4 -- -- 94
2020-03-21 21:00:00 12.8 0 Calma 8 Sur 0.2 -- -- 93
2020-03-21 20:00:00 12.5 3 Norte 21 Oeste 1.8 -- -- 91
2020-03-21 19:00:00 12.7 9 Noroeste 54 Oeste 2.4 -- -- 85
2020-03-21 18:00:00 15.6 17 Oeste 33 Oeste 0 -- -- 72
2020-03-21 17:00:00 16.9 18 Oeste 36 Oeste 0 -- -- 62
2020-03-21 16:00:00 17.6 13 Sudoeste 46 Oeste 0 -- -- 61
2020-03-21 15:00:00 17 24 Oeste 43 Oeste 0 -- -- 67
2020-03-21 14:00:00 16.8 24 Oeste 48 Oeste 0 -- -- 68
2020-03-21 13:00:00 16.4 18 Oeste 36 Oeste 0 -- -- 74
2020-03-21 12:00:00 15.7 12 Oeste 36 Noroeste 0 -- -- 80
2020-03-21 11:00:00 15 12 Sudoeste 30 Oeste 0 -- -- 81
2020-03-21 10:00:00 14.4 11 Sudoeste 19 Sudoeste 0 -- -- 83
2020-03-21 09:00:00 12.4 5 Oeste 13 Noroeste 0 -- -- 91
2020-03-21 08:00:00 11.6 3 Noroeste 25 Nordeste 0.4 -- -- 90
2020-03-21 07:00:00 11.4 7 Nordeste 14 Este 3.6 -- -- 93
2020-03-21 06:00:00 12 6 Noroeste 46 Oeste 12.2 -- -- 91
2020-03-21 05:00:00 14.4 2 Noroeste 18 Sudoeste 3.4 -- -- 91
2020-03-21 04:00:00 14.6 6 Oeste 14 Noroeste 0.2 -- -- 85
2020-03-21 03:00:00 14.7 3 Nordeste 8 Nordeste 0 -- -- 84
2020-03-21 02:00:00 15 3 Este 10 Nordeste 0 -- -- 82
2020-03-21 01:00:00 15 3 Oeste 8 Sudoeste 0 -- -- 80
2020-03-21 00:00:00 14.8 4 Norte 17 Sudeste 0 -- -- 82
2020-03-20 23:00:00 15.6 9 Sudeste 23 Sudeste 0 -- -- 76
2020-03-20 22:00:00 15.5 9 Sudeste 33 Sudeste 0 -- -- 81
2020-03-20 21:00:00 15.7 15 Sudeste 32 Sudeste 0 -- -- 81
2020-03-20 20:00:00 15.8 10 Sudeste 24 Sudeste 0 -- -- 81
2020-03-20 19:00:00 16.4 10 Sur 17 Sur 0 -- -- 78
2020-03-20 18:00:00 16.7 12 Sudoeste 22 Sur 0 -- -- 76
2020-03-20 17:00:00 18.1 10 Sudoeste 17 Sudoeste 0 -- -- 62
2020-03-20 16:00:00 17.9 7 Sudoeste 15 Sur 0 -- -- 64
2020-03-20 15:00:00 18.3 9 Sur 24 Sur 0 -- -- 66
2020-03-20 14:00:00 18.6 9 Sudoeste 17 Oeste 0 -- -- 64
2020-03-20 13:00:00 19.2 5 Sudoeste 12 Norte 0 -- -- 65
2020-03-20 12:00:00 16.7 8 Sur 17 Sur 0 -- -- 73
2020-03-20 11:00:00 17.4 9 Sudoeste 17 Sudoeste 0 -- -- 70
2020-03-20 10:00:00 16.4 9 Oeste 20 Oeste 0 -- -- 78
2020-03-20 09:00:00 14 5 Este 13 Este 0 -- -- 84
2020-03-20 08:00:00 12.5 6 Norte 12 Nordeste 0 -- -- 91
2020-03-20 07:00:00 12.2 4 Norte 10 Norte 0 -- -- 92
2020-03-20 06:00:00 12 6 Norte 10 Norte 0 -- -- 95
2020-03-20 05:00:00 11.6 4 Norte 8 Este 0 -- -- 93
2020-03-20 04:00:00 12 0 Calma 13 Nordeste 0 -- -- 92
2020-03-20 03:00:00 12.6 7 Nordeste 13 Nordeste 0 -- -- 92
2020-03-20 02:00:00 12.2 8 Norte 11 Norte 0 -- -- 93
2020-03-20 01:00:00 12.7 8 Nordeste 10 Nordeste 0 -- -- 92
2020-03-20 00:00:00 12.3 5 Norte 8 Norte 0 -- -- 94
2020-03-19 23:00:00 12.1 4 Norte 7 Norte 0 -- -- 92
2020-03-19 22:00:00 12.4 5 Norte 7 Norte 0 -- -- 91
2020-03-19 21:00:00 13.7 3 Norte 9 Noroeste 0 -- -- 86
2020-03-19 20:00:00 15.7 4 Noroeste 22 Oeste 0 -- -- 80
2020-03-19 19:00:00 16.9 10 Oeste 23 Oeste 0 -- -- 74
2020-03-19 18:00:00 17.6 8 Oeste 22 Oeste 0 -- -- 72
2020-03-19 17:00:00 17.7 10 Oeste 21 Sudoeste 0 -- -- 73
2020-03-19 16:00:00 18.2 12 Sudoeste 20 Sudoeste 0 -- -- 66
2020-03-19 15:00:00 19.3 11 Sudoeste 18 Sudoeste 0 -- -- 64
2020-03-19 14:00:00 18.9 11 Sudoeste 24 Sudoeste 0 -- -- 68
2020-03-19 13:00:00 19.7 11 Oeste 22 Sudoeste 0 -- -- 65
2020-03-19 12:00:00 19.4 10 Oeste 23 Oeste 0 -- -- 67
2020-03-19 11:00:00 17 5 Oeste 12 Oeste 0 -- -- 73
2020-03-19 10:00:00 15.3 2 Sur 4 Sur 0 -- -- 80
2020-03-19 09:00:00 12.5 3 Norte 7 Nordeste 0 -- -- 94
2020-03-19 08:00:00 11.4 3 Norte 10 Norte 0 -- -- 94
2020-03-19 07:00:00 11.1 0 Calma 10 Nordeste 0 -- -- 90
2020-03-19 06:00:00 11.6 5 Norte 11 Nordeste 0 -- -- 90
2020-03-19 05:00:00 11.6 6 Nordeste 10 Nordeste 0 -- -- 92
2020-03-19 04:00:00 11.3 4 Norte 8 Nordeste 0 -- -- 91
2020-03-19 03:00:00 12.4 5 Nordeste 10 Nordeste 0 -- -- 90
2020-03-19 02:00:00 12.2 7 Nordeste 11 Nordeste 0 -- -- 91
2020-03-19 01:00:00 12 6 Nordeste 9 Nordeste 0 -- -- 92
2020-03-19 00:00:00 12.3 4 Nordeste 8 Norte 0 -- -- 91
2020-03-18 23:00:00 13.1 2 Este 9 Nordeste 0 -- -- 85
2020-03-18 22:00:00 14.7 6 Noroeste 9 Oeste 0 -- -- 80
2020-03-18 21:00:00 14.7 2 Oeste 17 Sur 0 -- -- 79
2020-03-18 20:00:00 16.9 10 Sudeste 24 Sudeste 0 -- -- 67
2020-03-18 19:00:00 17.9 13 Sudeste 31 Sudeste 0 -- -- 62
2020-03-18 18:00:00 18.9 18 Sudeste 39 Sudeste 0 -- -- 58
2020-03-18 17:00:00 20.2 19 Sudeste 40 Sudeste 0 -- -- 53
2020-03-18 16:00:00 20.8 23 Sudeste 40 Sur 0 -- -- 51
2020-03-18 15:00:00 21 22 Sudeste 41 Sudeste 0 -- -- 50
2020-03-18 14:00:00 21.6 20 Sudeste 37 Sudeste 0 -- -- 49
2020-03-18 13:00:00 21.4 19 Sur 48 Sudeste 0 -- -- 51
2020-03-18 12:00:00 19.7 21 Sudeste 47 Sudeste 0 -- -- 57
2020-03-18 11:00:00 19.3 24 Sudeste 46 Sudeste 0 -- -- 60
2020-03-18 10:00:00 19.3 18 Sudeste 34 Sudeste 0 -- -- 57
2020-03-18 09:00:00 17.8 7 Norte 26 Sur 0 -- -- 61
2020-03-18 08:00:00 17.1 17 Sur 34 Sudeste 0 -- -- 64
2020-03-18 07:00:00 17.5 20 Sudeste 33 Sudeste 0 -- -- 61
2020-03-18 06:00:00 13.8 5 Este 10 Sudeste 0 -- -- 84
2020-03-18 05:00:00 12.7 3 Oeste 12 Nordeste 0 -- -- 88
2020-03-18 04:00:00 12.8 7 Nordeste 16 Nordeste 0 -- -- 87
2020-03-18 03:00:00 15.6 5 Nordeste 40 Sudeste 0 -- -- 74
2020-03-18 02:00:00 17.1 13 Sudeste 28 Sudeste 0 -- -- 68
2020-03-18 01:00:00 17 14 Sudeste 37 Sudeste 0 -- -- 73
2020-03-18 00:00:00 16.4 12 Sudeste 28 Sudeste 0 -- -- 75
2020-03-17 23:00:00 13.4 12 Nordeste 19 Noroeste 0 -- -- 86
2020-03-17 22:00:00 12.5 3 Nordeste 9 Norte 0 -- -- 89
2020-03-17 21:00:00 14 5 Norte 13 Oeste 0 -- -- 85
2020-03-17 20:00:00 16.1 5 Oeste 20 Noroeste 0 -- -- 72
2020-03-17 19:00:00 16.7 12 Oeste 27 Oeste 0 -- -- 71
2020-03-17 18:00:00 17.3 9 Sur 24 Sudeste 0 -- -- 67
2020-03-17 17:00:00 17.6 12 Sudeste 33 Sudeste 0 -- -- 68
2020-03-17 16:00:00 16.6 21 Sudeste 41 Sudeste 0 -- -- 70
2020-03-17 15:00:00 18.8 15 Sudeste 30 Sudeste 0 -- -- 35
2020-03-17 14:00:00 18.3 22 Sudeste 39 Sudeste 0 -- -- 35
2020-03-17 13:00:00 17.8 13 Sur 31 Sudeste 0 -- -- 42
2020-03-17 12:00:00 18.2 17 Sudeste 36 Sudeste 0 -- -- 35
2020-03-17 11:00:00 17.6 20 Sudeste 42 Sudeste 0 -- -- 42
2020-03-17 10:00:00 16.6 10 Sudeste 25 Este 0 -- -- 45
2020-03-17 09:00:00 13 11 Sudeste 24 Este 0 -- -- 57
2020-03-17 08:00:00 8.7 8 Norte 12 Nordeste 0 -- -- 72
2020-03-17 07:00:00 8.6 9 Nordeste 14 Norte 0 -- -- 63
2020-03-17 06:00:00 8.6 9 Nordeste 13 Nordeste 0 -- -- 63
2020-03-17 05:00:00 8.5 8 Nordeste 13 Nordeste 0 -- -- 64
2020-03-17 04:00:00 9.4 9 Nordeste 13 Nordeste 0 -- -- 59
2020-03-17 03:00:00 10.1 9 Nordeste 13 Nordeste 0 -- -- 57
2020-03-17 02:00:00 10 8 Norte 13 Norte 0 -- -- 60
2020-03-17 01:00:00 10 6 Nordeste 14 Nordeste 0 -- -- 59
2020-03-17 00:00:00 9.7 6 Nordeste 10 Nordeste 0 -- -- 72
2020-03-16 23:00:00 10.6 8 Nordeste 14 Norte 0 -- -- 56
2020-03-16 22:00:00 12 9 Noroeste 18 Norte 0 -- -- 41
2020-03-16 21:00:00 11.8 9 Norte 22 Norte 0 -- -- 44
2020-03-16 20:00:00 12.6 12 Norte 19 Norte 0 -- -- 40
2020-03-16 19:00:00 14.6 8 Norte 28 Noroeste 0 -- -- 34
2020-03-16 18:00:00 16.2 14 Noroeste 42 Noroeste 0 -- -- 27
2020-03-16 17:00:00 18.1 19 Norte 39 Noroeste 0 -- -- 21
2020-03-16 16:00:00 19.2 21 Norte 41 Noroeste 0 -- -- 19
2020-03-16 15:00:00 19.5 20 Oeste 45 Oeste 0 -- -- 25
2020-03-16 14:00:00 18.9 21 Oeste 45 Noroeste 0 -- -- 23
2020-03-16 13:00:00 18 18 Oeste 33 Noroeste 0 -- -- 40
2020-03-16 12:00:00 17.3 8 Noroeste 20 Noroeste 0 -- -- 42
2020-03-16 11:00:00 14.3 7 Norte 22 Noroeste 0.2 -- -- 55
2020-03-16 10:00:00 13.6 7 Norte 21 Nordeste 0 -- -- 74
2020-03-16 09:00:00 12.9 12 Nordeste 22 Nordeste 0.2 -- -- 92
2020-03-16 08:00:00 12.3 4 Norte 8 Nordeste 0 -- -- 97
2020-03-16 07:00:00 11.9 6 Nordeste 9 Nordeste 0 -- -- 95
2020-03-16 06:00:00 13 5 Norte 9 Norte 0 -- -- 95
2020-03-16 05:00:00 13.1 0 Calma 5 Nordeste 0 -- -- 95
2020-03-16 04:00:00 13.6 5 Norte 9 Noroeste 0 -- -- 93
2020-03-16 03:00:00 14 2 Nordeste 6 Norte 0 -- -- 95
2020-03-16 02:00:00 14.4 4 Norte 6 Nordeste 0 -- -- 95
2020-03-16 01:00:00 14.5 3 Este 5 Sur 0 -- -- 94
2020-03-16 00:00:00 14.2 2 Norte 6 Norte 0 -- -- 97
2020-03-15 23:00:00 13.9 3 Nordeste 6 Nordeste 0 -- -- 97
2020-03-15 22:00:00 13.2 4 Norte 6 Norte 0 -- -- 96
2020-03-15 21:00:00 13.2 4 Norte 15 Oeste 0 -- -- 92
2020-03-15 20:00:00 15.2 8 Oeste 19 Oeste 0 -- -- 89
2020-03-15 19:00:00 15.4 14 Oeste 25 Noroeste 0 -- -- 88
2020-03-15 18:00:00 15.2 4 Noroeste 7 Noroeste 0 -- -- 91
2020-03-15 17:00:00 15.4 0 Calma 8 Este 0 -- -- 89
2020-03-15 16:00:00 15.8 4 Sudeste 13 Sudoeste 0.4 -- -- 86
2020-03-15 15:00:00 16.4 3 Nordeste 7 Sudeste 0.2 -- -- 87
2020-03-15 14:00:00 15.9 7 Sur 18 Sur 0.6 -- -- 89
2020-03-15 13:00:00 16.9 9 Sur 18 Sur 0 -- -- 80
2020-03-15 12:00:00 17.2 3 Sudeste 10 Este 0 -- -- 75
2020-03-15 11:00:00 16.9 8 Sur 13 Sur 0 -- -- 79
2020-03-15 10:00:00 16.3 6 Sur 11 Sur 0 -- -- 82
2020-03-15 09:00:00 14.4 2 Nordeste 4 Nordeste 0 -- -- 97
2020-03-15 08:00:00 12.9 5 Norte 6 Norte 0 -- -- 97
2020-03-15 07:00:00 12.4 0 Calma 6 Noroeste 0 -- -- 94
2020-03-15 06:00:00 13.2 4 Nordeste 8 Nordeste 0 -- -- 92
2020-03-15 05:00:00 14.5 4 Nordeste 6 Nordeste 0 -- -- 93
2020-03-15 04:00:00 14.7 0 Calma 4 Nordeste 0 -- -- 93
2020-03-15 03:00:00 14.6 0 Calma 6 Nordeste 0 -- -- 92
2020-03-15 02:00:00 14.4 5 Norte 7 Nordeste 0 -- -- 93
2020-03-15 01:00:00 13.6 5 Nordeste 12 Norte 0 -- -- 96
2020-03-15 00:00:00 12.1 5 Nordeste 9 Nordeste 0 -- -- 95
2020-03-14 23:00:00 12.7 5 Nordeste 8 Nordeste 0 -- -- 94
2020-03-14 22:00:00 12.3 4 Norte 9 Norte 0 -- -- 93
2020-03-14 21:00:00 12.9 4 Norte 6 Norte 0 -- -- 90
2020-03-14 20:00:00 14.6 3 Norte 5 Sur 0 -- -- 86
2020-03-14 19:00:00 16.9 5 Sudoeste 11 Sudoeste 0 -- -- 80
2020-03-14 18:00:00 18.5 7 Sudoeste 14 Sudoeste 0 -- -- 73
2020-03-14 17:00:00 18.6 9 Sudoeste 16 Sudoeste 0 -- -- 74
2020-03-14 16:00:00 19.4 9 Sudoeste 17 Sur 0 -- -- 69
2020-03-14 15:00:00 19.8 9 Sudoeste 17 Sur 0 -- -- 68
2020-03-14 14:00:00 19.4 11 Sudoeste 21 Sur 0 -- -- 70
2020-03-14 13:00:00 19.3 13 Sudoeste 22 Sudoeste 0 -- -- 68
2020-03-14 12:00:00 19.2 12 Sudoeste 19 Sur 0 -- -- 68
2020-03-14 11:00:00 19 4 Oeste 13 Sur 0 -- -- 71
2020-03-14 10:00:00 17.2 5 Sur 8 Nordeste 0 -- -- 75
2020-03-14 09:00:00 13.6 6 Nordeste 12 Nordeste 0 -- -- 85
2020-03-14 08:00:00 12.3 9 Nordeste 13 Nordeste 0 -- -- 89
2020-03-14 07:00:00 12.9 6 Nordeste 12 Nordeste 0 -- -- 89
2020-03-14 06:00:00 13.7 7 Nordeste 10 Este 0 -- -- 91
2020-03-14 05:00:00 13.7 5 Nordeste 8 Nordeste 0 -- -- 96
2020-03-14 04:00:00 13.1 4 Nordeste 7 Nordeste 0 -- -- 96
2020-03-14 03:00:00 12.3 6 Norte 8 Norte 0 -- -- 95
2020-03-14 02:00:00 12.7 4 Norte 6 Norte 0 -- -- 94
2020-03-14 01:00:00 13.5 4 Norte 6 Norte 0 -- -- 93
2020-03-14 00:00:00 14 4 Nordeste 9 Nordeste 0 -- -- 94
2020-03-13 23:00:00 14 0 Calma 7 Este 0 -- -- 91
2020-03-13 22:00:00 16 4 Sudoeste 13 Sur 0 -- -- 91
2020-03-13 21:00:00 16.5 5 Sudoeste 13 Noroeste 0 -- -- 89
2020-03-13 20:00:00 16.8 8 Oeste 16 Oeste 0 -- -- 88
2020-03-13 19:00:00 18.2 4 Sudoeste 14 Sur 0 -- -- 72
2020-03-13 18:00:00 20.1 12 Sur 22 Sur 0 -- -- 65
2020-03-13 17:00:00 21.3 13 Sur 23 Sur 0 -- -- 53
2020-03-13 16:00:00 20.6 10 Oeste 17 Sudoeste 0 -- -- 65
2020-03-13 15:00:00 19.9 8 Sudoeste 26 Sudoeste 0 -- -- 72
2020-03-13 14:00:00 20.8 10 Sudoeste 17 Sudoeste 0 -- -- 68
2020-03-13 13:00:00 19.5 9 Sudoeste 16 Sudoeste 0 -- -- 76
2020-03-13 12:00:00 19.5 10 Sudoeste 17 Sudoeste 0 -- -- 74
2020-03-13 11:00:00 19.7 9 Sur 15 Sur 0 -- -- 70
2020-03-13 10:00:00 17.6 4 Sur 5 Sur 0 -- -- 73
2020-03-13 09:00:00 13.8 3 Norte 4 Norte 0 -- -- 94
2020-03-13 08:00:00 10.2 3 Norte 7 Norte 0 -- -- 94
2020-03-13 07:00:00 10.1 2 Nordeste 6 Noroeste 0 -- -- 91
2020-03-13 06:00:00 10.9 5 Noroeste 10 Norte 0 -- -- 87
2020-03-13 05:00:00 11 7 Norte 10 Norte 0 -- -- 87
2020-03-13 04:00:00 11 5 Nordeste 8 Norte 0 -- -- 87
2020-03-13 03:00:00 11.6 6 Norte 10 Norte 0 -- -- 85
2020-03-13 02:00:00 11.4 6 Norte 9 Nordeste 0 -- -- 88
2020-03-13 01:00:00 12.2 5 Nordeste 8 Norte 0 -- -- 85
2020-03-13 00:00:00 12.5 6 Norte 8 Oeste 0 -- -- 84
2020-03-12 23:00:00 13 4 Oeste 10 Norte 0 -- -- 81
2020-03-12 22:00:00 13 6 Norte 9 Norte 0 -- -- 81
2020-03-12 21:00:00 13.8 4 Nordeste 8 Norte 0 -- -- 81
2020-03-12 20:00:00 15.6 2 Norte 5 Norte 0 -- -- 76
2020-03-12 19:00:00 19.8 3 Noroeste 15 Oeste 0 -- -- 48
2020-03-12 18:00:00 21.8 10 Sudoeste 21 Oeste 0 -- -- 39
2020-03-12 17:00:00 22.9 10 Oeste 21 Oeste 0 -- -- 34
2020-03-12 16:00:00 22.9 13 Oeste 22 Oeste 0 -- -- 36
2020-03-12 15:00:00 24.1 10 Oeste 21 Noroeste 0 -- -- 31
2020-03-12 14:00:00 24.9 10 Oeste 17 Sudoeste 0 -- -- 31
2020-03-12 13:00:00 25.1 8 Oeste 13 Oeste 0 -- -- 29
2020-03-12 12:00:00 23.3 8 Sudoeste 15 Sudoeste 0 -- -- 30
2020-03-12 11:00:00 22.6 8 Sudoeste 15 Nordeste 0 -- -- 37
2020-03-12 10:00:00 22.5 13 Nordeste 23 Nordeste 0 -- -- 36
2020-03-12 09:00:00 18.9 15 Nordeste 24 Este 0 -- -- 41
2020-03-12 08:00:00 15.1 13 Nordeste 21 Nordeste 0 -- -- 51
2020-03-12 07:00:00 14 13 Nordeste 19 Nordeste 0 -- -- 56
2020-03-12 06:00:00 12.7 8 Nordeste 15 Nordeste 0 -- -- 65
2020-03-12 05:00:00 13.7 9 Nordeste 15 Nordeste 0 -- -- 61
2020-03-12 04:00:00 14 10 Nordeste 19 Nordeste 0 -- -- 62
2020-03-12 03:00:00 13.6 10 Nordeste 17 Norte 0 -- -- 67
2020-03-12 02:00:00 11.9 9 Norte 12 Norte 0 -- -- 79
2020-03-12 01:00:00 13.3 6 Nordeste 11 Oeste 0 -- -- 74
2020-03-12 00:00:00 17.1 5 Oeste 21 Oeste 0 -- -- 66
2020-03-11 23:00:00 13.9 0 Calma 11 Nordeste 0 -- -- 83
2020-03-11 22:00:00 13.9 3 Norte 9 Norte 0 -- -- 81
2020-03-11 21:00:00 15.4 3 Sudeste 14 Norte 0 -- -- 74
2020-03-11 20:00:00 16.2 10 Nordeste 13 Nordeste 0 -- -- 68
2020-03-11 19:00:00 20.4 3 Oeste 9 Oeste 0 -- -- 50
2020-03-11 18:00:00 23.5 5 Sudoeste 13 Sudoeste 0 -- -- 36
2020-03-11 17:00:00 24.1 0 Calma 11 Sur 0 -- -- 32
2020-03-11 16:00:00 24.4 4 Sur 11 Oeste 0 -- -- 37
2020-03-11 15:00:00 23.3 8 Sudoeste 13 Sudoeste 0 -- -- 32
2020-03-11 14:00:00 22.9 6 Sudoeste 13 Sudoeste 0 -- -- 33
2020-03-11 13:00:00 21.5 5 Sudoeste 14 Sudoeste 0 -- -- 39
2020-03-11 12:00:00 20.7 9 Sudoeste 15 Sudoeste 0 -- -- 41
2020-03-11 11:00:00 20.4 6 Sudoeste 13 Sudoeste 0 -- -- 44
2020-03-11 10:00:00 19.3 4 Sudoeste 11 Sur 0 -- -- 48
2020-03-11 09:00:00 15.9 4 Nordeste 11 Nordeste 0 -- -- 65
2020-03-11 08:00:00 11.3 4 Norte 17 Este 0 -- -- 79
2020-03-11 07:00:00 14.4 9 Este 23 Nordeste 0 -- -- 59
2020-03-11 06:00:00 10.9 10 Nordeste 17 Nordeste 0 -- -- 84
2020-03-11 05:00:00 10.3 8 Nordeste 12 Nordeste 0 -- -- 85
2020-03-11 04:00:00 10.6 6 Norte 12 Nordeste 0 -- -- 80
2020-03-11 03:00:00 11.6 8 Nordeste 12 Nordeste 0 -- -- 77
2020-03-11 02:00:00 11.2 7 Norte 14 Nordeste 0 -- -- 78
2020-03-11 01:00:00 12.1 8 Nordeste 15 Nordeste 0 -- -- 74
2020-03-11 00:00:00 11.9 9 Norte 13 Nordeste 0 -- -- 74